Time;durP1;ratioP1;P1;durP2;ratioP2;P2;SDS_P1;SDS_P2;PMS_P1;PMS_P2;Temp;Humidity;BMP_temperature;BMP_pressure;BME280_temperature;BME280_humidity;BME280_pressure;Samples;Min_cycle;Max_cycle;Signal;HPM_P1;HPM_P2
2022/07/09 00:01:25;;;;;;;18.20;12.20;;;;;;;17.98;70.37;100028.44;5132845;27;20500;-86
2022/07/09 00:03:52;;;;;;;18.92;11.02;;;;;;;18.06;70.02;100030.91;5117068;28;20047;-86
2022/07/09 00:06:19;;;;;;;15.48;11.60;;;;;;;18.05;69.80;100030.03;5116775;28;20432;-85
2022/07/09 00:08:46;;;;;;;17.08;11.50;;;;;;;17.96;69.86;100011.72;5116492;28;20470;-87
2022/07/09 00:11:13;;;;;;;16.55;11.10;;;;;;;17.98;69.93;100025.78;5116881;28;20104;-85
2022/07/09 00:13:40;;;;;;;18.02;12.23;;;;;;;17.99;69.63;100031.03;5116741;28;20112;-85
2022/07/09 00:16:07;;;;;;;16.67;12.30;;;;;;;17.88;69.58;100011.94;5098302;28;20520;-85
2022/07/09 00:18:34;;;;;;;20.40;12.02;;;;;;;17.93;69.68;100025.03;5116650;28;20048;-85
2022/07/09 00:21:02;;;;;;;16.00;11.63;;;;;;;17.92;69.62;100029.47;5116743;28;20081;-84
2022/07/09 00:23:29;;;;;;;16.38;11.82;;;;;;;17.93;69.37;100010.03;5116150;28;20105;-85
2022/07/09 00:42:18;;;;;;;15.02;9.77;;;;;;;18.96;65.80;100038.25;5084454;27;1413322;-80
2022/07/09 00:44:46;;;;;;;16.35;9.73;;;;;;;18.61;67.08;100016.25;5109275;28;20101;-80
2022/07/09 00:47:13;;;;;;;15.82;9.48;;;;;;;18.45;67.92;100023.72;5110455;28;20060;-80
2022/07/09 00:49:42;;;;;;;17.75;10.18;;;;;;;18.36;67.46;100008.94;5110570;28;20138;-80
2022/07/09 00:52:12;;;;;;;14.07;10.02;;;;;;;18.44;67.27;100026.41;5111053;28;20078;-80
2022/07/09 00:54:41;;;;;;;15.35;10.35;;;;;;;18.41;67.01;100030.88;5109632;28;20056;-79
2022/07/09 00:57:10;;;;;;;16.65;10.82;;;;;;;18.42;66.91;100027.31;5109198;28;20076;-79
2022/07/09 00:59:39;;;;;;;16.35;10.02;;;;;;;18.44;67.37;100016.69;5110224;28;20051;-79
2022/07/09 01:02:09;;;;;;;17.55;9.38;;;;;;;18.45;67.05;100023.72;5110350;28;20063;-80
2022/07/09 01:04:38;;;;;;;15.13;10.23;;;;;;;18.48;66.55;100026.28;5110455;28;20079;-79
2022/07/09 01:07:05;;;;;;;15.30;10.37;;;;;;;18.54;66.25;100019.94;5110290;28;20059;-78
2022/07/09 01:09:32;;;;;;;11.90;8.25;;;;;;;18.65;65.89;100031.13;5110299;28;20301;-80
2022/07/09 01:11:59;;;;;;;11.70;8.00;;;;;;;18.72;65.35;100021.25;5111694;28;20052;-80
2022/07/09 01:14:27;;;;;;;12.05;8.05;;;;;;;18.75;65.09;100006.13;5128106;28;20095;-79
2022/07/09 01:17:00;;;;;;;12.32;8.80;;;;;;;18.76;65.09;100014.97;5120138;28;20081;-79
2022/07/09 01:19:28;;;;;;;18.08;9.38;;;;;;;18.88;65.25;100006.69;5110438;28;20052;-79
2022/07/09 01:21:55;;;;;;;14.82;9.10;;;;;;;18.82;65.47;100004.22;5110333;28;20043;-79
2022/07/09 01:24:29;;;;;;;13.63;8.63;;;;;;;19.06;64.39;100020.31;5110023;28;20062;-79
2022/07/09 01:26:56;;;;;;;11.10;8.43;;;;;;;19.21;63.71;100017.22;5110059;28;20515;-79
2022/07/09 01:29:23;;;;;;;10.65;8.35;;;;;;;19.38;63.58;100022.00;5108528;28;20085;-80
2022/07/09 01:31:50;;;;;;;13.43;8.40;;;;;;;19.24;63.99;99975.63;5110172;28;20074;-80
2022/07/09 01:34:17;;;;;;;18.80;8.75;;;;;;;19.50;63.88;100024.28;5109516;28;20069;-80
2022/07/09 01:36:44;;;;;;;17.00;8.40;;;;;;;19.46;64.07;99992.63;5110134;28;20051;-80
2022/07/09 01:39:11;;;;;;;17.73;8.40;;;;;;;19.41;63.80;99979.53;5108836;28;20050;-80
2022/07/09 01:41:39;;;;;;;14.20;8.43;;;;;;;19.72;63.51;100021.84;5105393;28;20060;-80
2022/07/09 01:44:06;;;;;;;15.40;8.40;;;;;;;19.81;63.13;100007.44;5096213;28;20051;-79
2022/07/09 01:46:35;;;;;;;13.70;8.00;;;;;;;19.87;62.97;100009.03;5095694;28;20056;-79
2022/07/09 01:49:02;;;;;;;13.23;7.97;;;;;;;20.01;62.65;100033.31;5094434;28;20048;-79
2022/07/09 01:51:29;;;;;;;15.70;8.52;;;;;;;20.14;62.46;100024.03;5095672;28;20048;-80
2022/07/09 01:53:57;;;;;;;12.90;8.32;;;;;;;20.33;62.08;100026.94;5095862;28;20052;-79
2022/07/09 01:56:24;;;;;;;11.40;8.02;;;;;;;20.53;61.21;100018.28;5095597;28;20055;-78
2022/07/09 01:58:51;;;;;;;17.45;8.77;;;;;;;20.85;60.48;100024.25;5094556;28;20052;-81
2022/07/09 02:01:18;;;;;;;15.70;8.80;;;;;;;21.14;59.86;100017.84;5095705;28;20413;-80
2022/07/09 02:03:45;;;;;;;18.17;9.00;;;;;;;21.45;58.97;100020.25;5095894;28;20504;-80
2022/07/09 02:06:12;;;;;;;16.02;8.95;;;;;;;21.75;58.53;100009.34;5095735;28;20107;-80
2022/07/09 02:08:39;;;;;;;17.27;8.30;;;;;;;22.05;57.66;100001.03;5095444;28;20432;-80
2022/07/09 02:11:06;;;;;;;12.88;8.68;;;;;;;22.53;56.35;99996.38;5095806;28;20048;-80
2022/07/09 02:13:34;;;;;;;16.50;9.68;;;;;;;23.85;51.99;99987.59;5095321;28;20056;-79
2022/07/09 02:16:22;;;;;;;17.48;9.48;;;;;;;25.82;47.09;99990.47;5095005;28;20519;-81
2022/07/09 02:18:50;;;;;;;17.35;10.20;;;;;;;26.86;44.01;99972.69;5095279;28;20052;-80
2022/07/09 02:21:17;;;;;;;16.17;9.60;;;;;;;28.01;41.79;99996.59;5094965;28;20544;-81
2022/07/09 02:23:45;;;;;;;16.67;9.00;;;;;;;28.88;39.77;99984.38;5095341;28;20084;-81
2022/07/09 02:26:12;;;;;;;16.75;9.18;;;;;;;29.42;38.64;99994.84;5095721;28;20211;-81
2022/07/09 02:28:39;;;;;;;16.95;9.50;;;;;;;29.70;37.50;99985.63;5094886;28;20389;-81
2022/07/09 02:31:06;;;;;;;15.38;9.35;;;;;;;29.64;37.43;99977.97;5095348;28;20114;-81
2022/07/09 02:33:33;;;;;;;17.77;9.45;;;;;;;29.45;38.26;99966.84;5095138;28;20048;-81
2022/07/09 02:36:00;;;;;;;16.17;9.00;;;;;;;29.46;38.45;99974.81;5095166;28;20056;-81
2022/07/09 02:38:27;;;;;;;14.68;8.90;;;;;;;28.44;40.55;100004.44;5096711;28;20404;-81
2022/07/09 02:40:54;;;;;;;12.35;8.73;;;;;;;27.39;42.46;99972.97;5096974;28;20064;-80
2022/07/09 02:43:21;;;;;;;14.63;8.23;;;;;;;27.93;41.58;99989.94;5096242;28;20139;-81
2022/07/09 02:45:51;;;;;;;13.75;8.45;;;;;;;27.00;43.48;99988.78;5094666;28;20048;-80
2022/07/09 02:48:18;;;;;;;9.73;6.70;;;;;;;25.91;45.02;99998.84;5094415;28;20048;-81
2022/07/09 02:50:45;;;;;;;7.88;5.63;;;;;;;24.99;46.01;99997.75;5094680;28;20048;-80
2022/07/09 02:53:12;;;;;;;10.23;6.85;;;;;;;24.37;47.66;99998.31;5093762;28;20051;-81
2022/07/09 02:55:39;;;;;;;12.77;7.93;;;;;;;23.91;49.43;99961.47;5093989;28;20086;-79
2022/07/09 02:58:06;;;;;;;12.10;6.80;;;;;;;23.76;49.35;99996.06;5093514;28;20164;-80
2022/07/09 03:00:33;;;;;;;14.75;7.68;;;;;;;23.55;50.18;99995.25;5092823;28;20524;-80
2022/07/09 03:02:59;;;;;;;14.77;8.50;;;;;;;23.54;51.96;100001.53;5093939;28;20405;-82
2022/07/09 03:05:26;;;;;;;17.10;7.70;;;;;;;23.63;52.34;100001.94;5094086;28;20048;-79
2022/07/09 03:07:54;;;;;;;11.95;7.75;;;;;;;23.55;51.71;99998.78;5094223;28;20055;-79
2022/07/09 03:10:21;;;;;;;15.15;8.48;;;;;;;23.38;52.78;100014.72;5094718;28;20048;-80
2022/07/09 03:12:48;;;;;;;11.13;6.95;;;;;;;23.23;50.80;99995.88;5095970;28;20094;-80
2022/07/09 03:15:17;;;;;;;11.32;7.43;;;;;;;23.22;50.76;99986.13;5109837;28;20064;-80
2022/07/09 03:17:45;;;;;;;17.75;9.55;;;;;;;23.02;51.00;99981.72;5104300;28;20074;-79
2022/07/09 03:20:13;;;;;;;11.80;8.45;;;;;;;23.01;52.22;99995.13;5093478;28;20230;-80
2022/07/09 03:22:40;;;;;;;13.30;7.97;;;;;;;23.09;52.56;99996.50;5093466;28;20147;-80
2022/07/09 03:25:08;;;;;;;16.40;9.00;;;;;;;23.00;52.57;99988.94;5093795;28;20052;-80
2022/07/09 03:27:35;;;;;;;14.02;9.20;;;;;;;22.99;52.44;100005.78;5075685;28;20135;-80
2022/07/09 03:30:04;;;;;;;17.63;10.15;;;;;;;22.87;52.05;99985.94;5094359;28;20102;-80
2022/07/09 03:32:31;;;;;;;25.40;12.95;;;;;;;22.94;51.55;99996.31;5093420;28;20052;-79
2022/07/09 03:34:58;;;;;;;20.77;10.52;;;;;;;22.89;50.91;99996.53;5093681;28;20501;-80
2022/07/09 03:37:25;;;;;;;22.20;11.57;;;;;;;22.92;51.59;99992.84;5093311;28;20121;-80
2022/07/09 03:39:52;;;;;;;21.65;11.02;;;;;;;23.32;50.91;99994.56;5093618;28;20065;-80
2022/07/09 03:42:19;;;;;;;20.25;10.77;;;;;;;23.78;49.63;99994.19;5093480;28;20424;-81
2022/07/09 03:44:46;;;;;;;18.98;10.18;;;;;;;24.22;49.27;100002.63;5093674;28;20055;-81
2022/07/09 03:47:13;;;;;;;16.73;9.73;;;;;;;24.55;48.70;100012.53;5093711;28;20101;-81
2022/07/09 03:49:40;;;;;;;16.88;10.05;;;;;;;24.67;48.47;99993.22;5093164;28;20062;-81
2022/07/09 03:52:07;;;;;;;15.90;9.80;;;;;;;24.65;48.64;100011.13;5093496;28;20051;-81
2022/07/09 03:54:46;;;;;;;12.88;8.82;;;;;;;24.85;48.57;100014.53;5092797;28;20424;-81
2022/07/09 03:57:14;;;;;;;13.82;8.45;;;;;;;25.08;48.16;100006.16;5092833;28;20410;-82
2022/07/09 03:59:41;;;;;;;15.68;7.97;;;;;;;25.55;47.05;99996.44;5092985;28;20079;-80
2022/07/09 04:02:08;;;;;;;12.95;7.97;;;;;;;27.22;43.49;99996.34;5093292;28;20056;-81
2022/07/09 04:04:40;;;;;;;12.23;7.97;;;;;;;29.06;38.85;99964.25;5092709;28;20528;-80
2022/07/09 04:07:07;;;;;;;14.38;8.43;;;;;;;30.40;36.57;99992.06;5093198;28;20047;-81
2022/07/09 04:09:34;;;;;;;13.43;7.57;;;;;;;31.57;34.53;99980.09;5092589;28;20043;-80
2022/07/09 04:12:01;;;;;;;13.70;7.32;;;;;;;32.42;32.57;99990.94;5093074;28;20117;-81
2022/07/09 04:14:28;;;;;;;13.27;7.47;;;;;;;33.35;30.80;99996.41;5092832;28;20056;-81
2022/07/09 04:16:55;;;;;;;10.43;7.03;;;;;;;33.67;30.27;100001.63;5092735;28;20063;-80
2022/07/09 04:19:22;;;;;;;11.73;7.45;;;;;;;33.28;30.52;99989.81;5092706;28;20097;-80
2022/07/09 04:21:49;;;;;;;10.82;7.47;;;;;;;31.83;32.66;100000.38;5092881;28;20481;-80
2022/07/09 04:24:16;;;;;;;9.65;7.45;;;;;;;30.91;34.54;99996.19;5091586;28;20078;-81
2022/07/09 04:26:43;;;;;;;12.38;7.47;;;;;;;30.17;36.04;99981.19;5092704;28;20132;-79
2022/07/09 04:29:10;;;;;;;10.40;7.10;;;;;;;29.39;37.39;99978.94;5093086;28;20066;-80
2022/07/09 04:31:37;;;;;;;10.20;5.90;;;;;;;28.89;37.51;99970.84;5092683;28;20088;-80
2022/07/09 04:34:05;;;;;;;12.73;6.63;;;;;;;28.67;38.19;99979.53;5092628;28;20059;-80
2022/07/09 04:36:32;;;;;;;10.68;6.80;;;;;;;28.72;38.57;99982.78;5092567;28;20079;-81
2022/07/09 04:38:58;;;;;;;9.13;6.95;;;;;;;29.09;38.14;99972.13;5092693;28;20131;-80
2022/07/09 04:41:26;;;;;;;9.68;6.50;;;;;;;29.38;37.50;99983.47;5092054;28;20474;-80
2022/07/09 04:43:53;;;;;;;13.88;6.60;;;;;;;29.55;37.52;99989.44;5092634;28;20055;-80
2022/07/09 04:46:21;;;;;;;10.15;6.57;;;;;;;29.27;37.54;99982.53;5092723;28;20052;-81
2022/07/09 04:48:49;;;;;;;9.80;5.72;;;;;;;29.36;38.17;99979.16;5092605;28;20050;-80
2022/07/09 04:51:16;;;;;;;10.10;6.22;;;;;;;29.46;37.53;99944.38;5091198;28;20407;-81
2022/07/09 04:53:43;;;;;;;9.25;5.35;;;;;;;29.83;36.70;99982.03;5092389;28;20059;-80
2022/07/09 04:56:10;;;;;;;6.70;6.00;;;;;;;29.76;36.92;99985.16;5092760;28;20052;-80
2022/07/09 04:58:37;;;;;;;6.95;5.68;;;;;;;29.68;37.15;99979.47;5091629;28;20051;-81
2022/07/09 05:01:04;;;;;;;7.50;4.80;;;;;;;29.37;36.84;99957.53;5092752;28;20109;-80
2022/07/09 05:03:32;;;;;;;9.13;5.22;;;;;;;29.24;37.22;99983.59;5092202;28;20143;-81
2022/07/09 05:06:01;;;;;;;7.05;5.10;;;;;;;28.83;37.56;99975.81;5090993;28;20113;-81
2022/07/09 05:08:28;;;;;;;12.02;5.68;;;;;;;28.49;38.52;99956.66;5092365;28;20075;-81
2022/07/09 05:10:55;;;;;;;10.77;6.20;;;;;;;28.22;39.38;99960.25;5092241;28;20117;-81
2022/07/09 05:13:22;;;;;;;11.73;5.88;;;;;;;27.76;40.53;99955.28;5092041;28;20401;-81
2022/07/09 05:15:49;;;;;;;9.25;5.90;;;;;;;27.11;42.11;99953.25;5092624;28;20060;-82
2022/07/09 05:18:16;;;;;;;9.75;5.47;;;;;;;26.63;42.53;99942.84;5114749;28;20173;-81
2022/07/09 05:20:43;;;;;;;7.57;5.65;;;;;;;26.44;44.14;99950.25;5104199;28;20048;-81
2022/07/09 05:23:10;;;;;;;7.63;5.65;;;;;;;25.73;45.50;99931.22;5096385;28;20105;-81
2022/07/09 05:25:37;;;;;;;8.40;6.03;;;;;;;25.11;47.31;99928.47;5095767;28;20504;-80
2022/07/09 05:28:04;;;;;;;7.25;5.53;;;;;;;24.40;49.45;99917.19;5094654;28;20052;-80
2022/07/09 05:30:36;;;;;;;7.25;5.90;;;;;;;23.83;51.12;99893.44;5095690;28;20532;-81
2022/07/09 05:33:04;;;;;;;8.82;6.32;;;;;;;23.37;54.09;99909.91;5096323;28;20055;-80
2022/07/09 05:35:31;;;;;;;10.30;6.70;;;;;;;23.18;54.91;99911.75;5095623;28;20052;-80
2022/07/09 05:37:59;;;;;;;8.05;6.75;;;;;;;23.18;55.40;99922.41;5096404;28;20075;-81
2022/07/09 05:40:26;;;;;;;7.95;6.13;;;;;;;23.14;54.90;99918.16;5095427;28;20048;-80
2022/07/09 05:42:53;;;;;;;9.98;6.53;;;;;;;22.99;55.86;99925.03;5077230;28;20083;-80
2022/07/09 05:45:20;;;;;;;6.72;5.85;;;;;;;22.92;55.35;99904.97;5096087;28;20048;-80
2022/07/09 05:47:47;;;;;;;8.13;6.10;;;;;;;22.94;56.13;99919.06;5095542;28;20048;-80
2022/07/09 05:50:14;;;;;;;8.93;6.53;;;;;;;23.08;56.37;99925.50;5095854;28;20055;-80
2022/07/09 05:52:41;;;;;;;10.48;6.40;;;;;;;23.37;56.62;99930.38;5077385;28;20080;-80
2022/07/09 05:55:08;;;;;;;9.02;6.47;;;;;;;23.58;55.67;99915.13;5095589;28;20214;-82
2022/07/09 05:57:36;;;;;;;7.85;6.63;;;;;;;23.97;56.30;99936.28;5095641;28;20052;-80
2022/07/09 06:00:10;;;;;;;9.52;6.20;;;;;;;24.21;54.75;99934.16;5094172;28;20558;-81
2022/07/09 06:02:37;;;;;;;6.40;5.25;;;;;;;24.23;54.31;99937.63;5094065;28;20048;-81
2022/07/09 06:05:04;;;;;;;11.05;7.28;;;;;;;24.22;55.94;99929.69;5095166;28;20080;-80
2022/07/09 06:07:31;;;;;;;10.02;7.20;;;;;;;24.21;56.20;99938.66;5095191;28;20063;-80
2022/07/09 06:09:58;;;;;;;15.13;6.95;;;;;;;24.15;57.11;99931.81;5094377;28;20082;-81
2022/07/09 06:12:25;;;;;;;11.70;7.80;;;;;;;24.22;57.48;99954.59;5095467;28;20101;-79
2022/07/09 06:14:52;;;;;;;18.00;8.93;;;;;;;24.26;57.24;99953.50;5095112;28;20060;-80
2022/07/09 06:17:19;;;;;;;13.85;8.63;;;;;;;24.39;58.08;99955.50;5095370;28;20110;-79
2022/07/09 06:19:46;;;;;;;12.45;6.20;;;;;;;24.53;55.97;99961.03;5094822;28;20101;-81
2022/07/09 06:22:12;;;;;;;10.68;6.53;;;;;;;24.77;56.56;99963.31;5094742;28;20492;-80
2022/07/09 06:24:40;;;;;;;11.13;6.60;;;;;;;25.11;55.08;99957.88;5093654;28;20110;-81
2022/07/09 06:27:06;;;;;;;18.45;7.30;;;;;;;25.46;55.09;99952.38;5094759;28;20058;-81
2022/07/09 06:29:33;;;;;;;10.10;6.70;;;;;;;25.60;53.47;99958.72;5094635;28;20052;-81
2022/07/09 06:32:00;;;;;;;10.98;7.28;;;;;;;25.69;54.75;99937.69;5094841;28;20072;-79
2022/07/09 06:34:27;;;;;;;10.32;5.97;;;;;;;26.17;51.57;99960.81;5094290;28;20458;-81
2022/07/09 06:36:54;;;;;;;7.95;4.97;;;;;;;26.55;49.75;99955.81;5095404;28;20052;-80
2022/07/09 06:42:07;;;;;;;5.72;4.65;;;;;;;27.00;47.78;99945.88;5093432;28;20048;-80
2022/07/09 06:44:36;;;;;;;8.10;4.80;;;;;;;26.95;47.19;99918.50;5076917;28;20056;-80
2022/07/09 06:47:03;;;;;;;6.57;4.93;;;;;;;27.20;46.39;99930.34;5094260;28;20501;-79
2022/07/09 06:49:31;;;;;;;5.20;4.38;;;;;;;26.68;46.94;99921.97;5094698;28;20109;-79
2022/07/09 06:51:59;;;;;;;5.38;4.22;;;;;;;26.01;48.00;99907.34;5094308;28;20056;-81
2022/07/09 06:54:26;;;;;;;4.88;4.47;;;;;;;25.59;49.41;99899.03;5094066;28;20065;-80
2022/07/09 06:56:53;;;;;;;6.40;4.57;;;;;;;25.27;51.03;99899.09;5093001;28;20078;-80
2022/07/09 06:59:22;;;;;;;5.80;4.85;;;;;;;25.16;52.35;99884.59;5095312;28;20048;-80
2022/07/09 07:01:49;;;;;;;5.20;4.30;;;;;;;25.03;51.69;99887.94;5092737;28;20421;-80
2022/07/09 07:04:16;;;;;;;7.85;4.88;;;;;;;25.13;52.74;99864.25;5094300;28;20052;-79
2022/07/09 07:06:46;;;;;;;8.80;5.70;;;;;;;25.20;54.30;99878.16;5094062;28;20044;-81
2022/07/09 07:09:13;;;;;;;9.23;5.50;;;;;;;25.05;54.97;99856.66;5094300;28;20512;-80
2022/07/09 07:11:40;;;;;;;9.85;5.45;;;;;;;25.06;55.02;99877.09;5094287;28;20048;-81
2022/07/09 07:14:07;;;;;;;5.90;4.97;;;;;;;24.90;55.30;99878.91;5094503;28;20052;-81
2022/07/09 07:16:34;;;;;;;7.13;5.15;;;;;;;24.66;55.53;99862.41;5094922;28;20058;-81
2022/07/09 07:19:01;;;;;;;8.25;5.30;;;;;;;24.75;56.24;99883.28;5097966;28;20143;-80
2022/07/09 07:21:28;;;;;;;5.45;4.70;;;;;;;24.71;55.38;99871.88;5116181;28;20051;-80
2022/07/09 07:23:55;;;;;;;7.95;4.70;;;;;;;24.99;55.27;99881.03;5095133;28;20048;-79
2022/07/09 07:26:22;;;;;;;6.88;5.85;;;;;;;25.05;53.69;99883.38;5094968;28;20048;-81
2022/07/09 07:28:49;;;;;;;6.78;5.68;;;;;;;25.09;54.03;99884.94;5093295;28;20101;-82
2022/07/09 07:31:17;;;;;;;6.00;5.40;;;;;;;25.08;53.89;99875.19;5093607;28;20074;-81
2022/07/09 07:33:44;;;;;;;7.00;6.07;;;;;;;25.33;54.18;99906.75;5093434;28;20056;-80
2022/07/09 07:36:11;;;;;;;7.82;6.50;;;;;;;25.33;53.63;99903.22;5093659;28;20044;-80
2022/07/09 07:38:38;;;;;;;18.42;9.38;;;;;;;25.42;53.83;99897.34;5093148;28;20105;-81
2022/07/09 07:41:05;;;;;;;11.82;7.75;;;;;;;25.55;53.67;99897.50;5092953;28;20052;-81
2022/07/09 07:43:32;;;;;;;7.75;5.45;;;;;;;25.48;52.82;99846.19;5093409;28;20048;-81
2022/07/09 07:45:59;;;;;;;6.05;4.35;;;;;;;25.53;52.37;99886.91;5093235;28;20044;-81
2022/07/09 07:48:35;;;;;;;7.97;5.63;;;;;;;25.40;52.24;99851.13;5093806;28;20047;-81
2022/07/09 07:51:04;;;;;;;4.57;4.18;;;;;;;25.73;52.64;99885.72;5094080;28;20097;-81
2022/07/09 07:53:31;;;;;;;5.07;4.57;;;;;;;25.70;52.33;99885.03;5092597;28;20508;-80
2022/07/09 07:56:03;;;;;;;6.85;4.40;;;;;;;25.66;51.52;99873.69;5093918;28;20109;-80
2022/07/09 07:58:30;;;;;;;7.28;4.70;;;;;;;25.56;52.02;99864.47;5093532;28;20063;-82
2022/07/09 08:00:58;;;;;;;4.10;3.70;;;;;;;25.51;51.76;99898.63;5093017;28;20130;-80
2022/07/09 08:03:25;;;;;;;6.15;4.38;;;;;;;25.31;53.09;99892.59;5092930;28;20558;-81
2022/07/09 08:05:58;;;;;;;5.25;4.72;;;;;;;24.95;53.43;99868.81;5093298;28;20084;-81
2022/07/09 08:08:25;;;;;;;6.60;5.05;;;;;;;24.75;53.76;99893.09;5092697;28;20420;-81
2022/07/09 08:10:52;;;;;;;7.88;5.60;;;;;;;24.60;55.56;99910.81;5093336;28;20055;-81
2022/07/09 08:13:19;;;;;;;5.25;4.75;;;;;;;24.44;55.76;99918.78;5093025;28;20048;-82
2022/07/09 08:15:46;;;;;;;4.90;4.50;;;;;;;24.39;56.56;99932.31;5091833;28;20530;-81
2022/07/09 08:18:13;;;;;;;6.65;5.00;;;;;;;24.43;56.12;99947.25;5093170;28;20056;-79
2022/07/09 08:20:41;;;;;;;6.72;4.32;;;;;;;24.44;55.32;99953.47;5074892;28;20051;-80
2022/07/09 08:23:09;;;;;;;5.18;4.43;;;;;;;24.47;55.25;99964.84;5091870;28;20048;-82
2022/07/09 08:25:36;;;;;;;6.95;4.40;;;;;;;;;;5091821;28;20143;-80
2022/07/09 08:28:03;;;;;;;4.97;4.57;;;;;;;24.40;54.24;99942.09;5090742;28;20047;-83
2022/07/09 08:30:30;;;;;;;5.20;4.28;;;;;;;24.32;54.43;99953.16;5092783;28;20044;-81
2022/07/09 08:32:57;;;;;;;4.53;4.13;;;;;;;24.45;54.67;99973.88;5092413;28;20485;-83
2022/07/09 08:35:25;;;;;;;5.47;4.60;;;;;;;24.47;53.74;99963.97;5092599;28;20071;-82
2022/07/09 08:37:53;;;;;;;5.47;4.97;;;;;;;24.44;54.14;99980.16;5090942;28;20048;-82
2022/07/09 08:40:21;;;;;;;6.32;5.20;;;;;;;24.48;54.24;99976.41;5092313;28;20509;-80
2022/07/09 08:42:49;;;;;;;6.25;5.30;;;;;;;24.44;54.42;99967.69;5092109;28;20048;-81
2022/07/09 08:45:20;;;;;;;8.93;5.35;;;;;;;24.45;53.96;99969.38;5092706;28;20063;-81
2022/07/09 08:47:47;;;;;;;8.10;5.90;;;;;;;24.43;54.37;99967.75;5091251;28;20425;-81
2022/07/09 08:50:14;;;;;;;8.07;5.85;;;;;;;24.47;54.76;99975.50;5092563;28;20143;-80
2022/07/09 08:52:41;;;;;;;7.88;6.15;;;;;;;24.36;55.06;99942.31;5094720;28;20138;-82
2022/07/09 08:55:10;;;;;;;9.73;5.30;;;;;;;24.37;54.67;99939.59;5096768;28;20099;-82
2022/07/09 08:57:38;;;;;;;6.60;5.28;;;;;;;24.70;54.74;99989.50;5096617;28;20420;-81
2022/07/09 09:00:05;;;;;;;8.48;5.82;;;;;;;24.93;54.33;99978.44;5096318;28;20056;-81
2022/07/09 09:02:39;;;;;;;6.63;5.60;;;;;;;25.11;54.34;99963.19;5095181;28;20051;-81
2022/07/09 09:05:12;;;;;;;8.68;6.53;;;;;;;25.32;53.70;99958.50;5096745;28;20064;-81
2022/07/09 09:07:40;;;;;;;11.60;6.50;;;;;;;25.18;54.15;99962.88;5097412;28;20143;-79
2022/07/09 09:10:07;;;;;;;9.15;6.13;;;;;;;25.20;53.88;99967.22;5096964;28;20105;-81
2022/07/09 09:12:36;;;;;;;9.20;6.85;;;;;;;25.13;54.06;99972.00;5096101;28;20059;-79
2022/07/09 09:15:06;;;;;;;9.32;6.95;;;;;;;25.05;54.62;99965.34;5095997;28;20063;-80
2022/07/09 09:17:34;;;;;;;12.13;7.00;;;;;;;24.83;54.67;99953.16;5096400;28;20055;-79
2022/07/09 09:20:12;;;;;;;11.30;8.02;;;;;;;24.67;55.20;99978.97;5096923;28;20056;-81
2022/07/09 09:22:49;;;;;;;13.25;9.20;;;;;;;24.55;55.32;99985.84;5110219;28;20047;-80
2022/07/09 09:25:21;;;;;;;11.32;7.35;;;;;;;24.38;55.67;99993.84;5108785;28;20076;-81
2022/07/09 09:27:51;;;;;;;11.45;6.35;;;;;;;24.18;55.85;99997.50;5096178;28;20054;-80
2022/07/09 09:30:19;;;;;;;8.93;6.63;;;;;;;24.01;56.56;99990.38;5096073;28;20081;-80
2022/07/09 09:33:03;;;;;;;9.43;6.20;;;;;;;23.75;58.14;99983.59;5095375;28;20616;-80
2022/07/09 09:35:33;;;;;;;11.60;7.03;;;;;;;23.71;58.83;99994.44;5096173;28;20052;-81
2022/07/09 09:38:00;;;;;;;9.27;7.40;;;;;;;23.59;59.59;99987.03;5095748;28;20426;-82
2022/07/09 09:40:27;;;;;;;11.15;8.00;;;;;;;23.43;59.95;99967.41;5096262;28;20071;-81
2022/07/09 09:42:59;;;;;;;11.05;7.95;;;;;;;23.26;60.73;99955.72;5095238;28;20416;-80
2022/07/09 09:45:28;;;;;;;9.65;8.20;;;;;;;23.08;60.77;99959.25;5096860;28;20056;-81
2022/07/09 09:47:55;;;;;;;11.98;7.82;;;;;;;22.72;61.77;99962.66;5100676;28;20048;-79
2022/07/09 09:50:24;;;;;;;10.63;7.20;;;;;;;22.33;62.66;99955.53;5100476;28;20052;-81
2022/07/09 09:52:54;;;;;;;12.32;7.93;;;;;;;21.90;64.20;99938.72;5102006;28;20047;-80
2022/07/09 09:55:22;;;;;;;12.07;7.72;;;;;;;21.74;65.27;99934.94;5094389;28;20394;-81
2022/07/09 09:57:51;;;;;;;8.90;7.60;;;;;;;21.37;66.09;99910.72;5095577;28;20052;-80
2022/07/09 10:00:19;;;;;;;10.57;8.73;;;;;;;21.33;67.56;99938.31;5093799;28;20436;-80
2022/07/09 10:02:47;;;;;;;11.68;8.90;;;;;;;21.12;68.77;99924.09;5094736;28;20457;-80
2022/07/09 10:05:14;;;;;;;12.13;8.55;;;;;;;21.00;68.79;99921.94;5095771;28;20044;-80
2022/07/09 10:07:45;;;;;;;11.68;8.55;;;;;;;20.89;69.25;99900.22;5077608;28;20103;-81
2022/07/09 10:10:20;;;;;;;9.80;8.43;;;;;;;20.76;70.50;99894.53;5095874;28;20055;-82
2022/07/09 10:12:47;;;;;;;15.50;8.80;;;;;;;20.51;71.78;99865.38;5095396;28;20091;-81
2022/07/09 10:15:26;;;;;;;11.20;8.85;;;;;;;20.53;72.35;99880.31;5093953;28;20062;-81
2022/07/09 10:17:55;;;;;;;9.93;8.88;;;;;;;20.53;73.74;99890.91;5095395;28;20124;-81
2022/07/09 10:20:33;;;;;;;10.52;7.95;;;;;;;20.53;73.30;99890.91;5094832;28;20459;-81
2022/07/09 10:23:03;;;;;;;13.85;9.98;;;;;;;20.58;73.79;99880.16;5094457;28;20051;-82
2022/07/09 10:25:43;;;;;;;13.52;10.05;;;;;;;20.66;73.88;99870.13;5094252;28;20050;-80
2022/07/09 10:28:20;;;;;;;9.18;7.93;;;;;;;20.59;72.84;99866.00;5093801;28;20056;-81
2022/07/09 10:30:48;;;;;;;8.88;7.60;;;;;;;20.69;72.05;99867.34;5094883;28;20052;-80
2022/07/09 10:33:22;;;;;;;7.43;5.63;;;;;;;20.84;69.33;99863.25;5095153;28;20177;-79
2022/07/09 10:35:51;;;;;;;5.38;4.88;;;;;;;20.83;67.78;99866.81;5095162;28;20148;-82
2022/07/09 10:38:20;;;;;;;6.00;4.95;;;;;;;20.92;66.76;99862.94;5094432;28;20051;-80
2022/07/09 10:40:58;;;;;;;6.03;5.07;;;;;;;20.86;66.02;99833.06;5095188;28;20052;-82
2022/07/09 10:43:45;;;;;;;5.45;4.68;;;;;;;20.98;65.14;99834.38;5096463;28;20489;-80
2022/07/09 10:46:13;;;;;;;4.80;4.30;;;;;;;21.13;63.48;99816.94;5097636;28;20052;-83
2022/07/09 10:48:41;;;;;;;6.90;4.82;;;;;;;21.46;62.33;99805.88;5097923;28;20048;-81
2022/07/09 10:51:08;;;;;;;6.57;5.20;;;;;;;22.07;61.90;99839.59;5096921;28;20415;-81
2022/07/09 10:53:35;;;;;;;5.70;5.07;;;;;;;22.83;60.38;99808.59;5096573;28;20489;-80
2022/07/09 10:56:02;;;;;;;4.90;4.50;;;;;;;23.35;58.63;99799.84;5094948;28;20138;-80
2022/07/09 10:58:30;;;;;;;5.55;4.70;;;;;;;23.55;58.08;99827.31;5094608;28;20470;-81
2022/07/09 11:00:59;;;;;;;5.32;4.60;;;;;;;23.34;58.81;99810.59;5094368;28;20123;-79
2022/07/09 11:03:28;;;;;;;6.00;4.43;;;;;;;23.39;58.22;99798.75;5094286;28;20083;-80
2022/07/09 11:05:56;;;;;;;4.55;4.15;;;;;;;23.46;58.71;99816.16;5092768;28;20151;-79
2022/07/09 11:08:24;;;;;;;5.28;4.78;;;;;;;23.61;57.92;99808.34;5094143;28;20059;-81
2022/07/09 11:10:51;;;;;;;5.43;4.80;;;;;;;23.74;58.22;99787.22;5094023;28;20469;-82
2022/07/09 11:13:23;;;;;;;7.47;5.88;;;;;;;23.90;58.11;99746.38;5094104;28;20056;-82
2022/07/09 11:15:50;;;;;;;8.73;5.38;;;;;;;24.29;57.97;99813.69;5093173;28;20051;-80
2022/07/09 11:18:18;;;;;;;5.80;5.22;;;;;;;24.36;57.01;99790.19;5094147;28;20410;-81
2022/07/09 11:20:46;;;;;;;6.05;5.38;;;;;;;24.57;56.72;99789.03;5094637;28;20056;-82
2022/07/09 11:23:16;;;;;;;6.22;5.28;;;;;;;24.67;56.36;99800.03;5100513;28;20056;-81
2022/07/09 11:25:46;;;;;;;6.07;5.45;;;;;;;24.92;55.57;99788.84;5117811;28;20048;-82
2022/07/09 11:28:24;;;;;;;5.28;4.78;;;;;;;24.63;56.03;99788.69;5101990;28;20390;-81
2022/07/09 11:31:02;;;;;;;6.15;5.55;;;;;;;24.63;56.35;99774.44;5093023;28;20071;-80
2022/07/09 11:36:21;;;;;;;4.60;4.20;;;;;;;24.21;55.64;99763.38;5092730;28;20052;-80
2022/07/09 11:38:53;;;;;;;5.95;5.20;;;;;;;24.22;56.54;99741.09;5096351;28;20063;-82
2022/07/09 11:41:20;;;;;;;5.50;5.10;;;;;;;24.35;56.32;99743.94;5092702;28;20052;-80
2022/07/09 11:43:48;;;;;;;5.57;4.85;;;;;;;24.45;56.39;99746.94;5093985;28;20052;-83
2022/07/09 11:46:19;;;;;;;6.60;4.90;;;;;;;24.60;56.12;99740.78;5093641;28;20048;-81
2022/07/09 11:48:51;;;;;;;5.45;4.95;;;;;;;24.57;55.73;99692.91;5093636;28;20481;-80
2022/07/09 11:51:34;;;;;;;8.05;5.35;;;;;;;24.99;55.03;99731.41;5093861;28;20058;-80
2022/07/09 11:54:01;;;;;;;5.55;4.95;;;;;;;25.13;54.53;99746.66;5093719;28;20143;-81